Groton New London Airport
KGON : now visible

Airfield :











YOU CAN JOIN US ON...

 
LOGIN :

Register | Disclaimer

   EN    FR    IT 

 









Legend :    VFR   Marginal VFR   IFR   Intensive IFR   Very Intensive IFR
Visi :
Ceiling :
>= 8 km
>= 3000ft
5 to 8 km
1000 to 3000 ft
1500m to 5 km
500 to 1000 ft
800 to 1500m
200 to 500 ft
< 800m
< 200 ft
Symbols :   Thunderstorms  Fog  Heavy snow  Heavy precipitations  Wind > 20 kt







- Airport Elevation : 9 ft
- IATA code : GON


KGON - Groton New London

CURRENT METAR :
  • 191156Z 15005KT 10SM SCT055 14/09 A3013 RMK AO2 SLP204 T01440094 10150 20117 53013

EXPIRED METARs :
  • 191056Z 12007KT 10SM CLR 13/09 A3012 RMK AO2 SLP199 T01330094
  • 190956Z AUTO 13004KT 10SM CLR 12/09 A3011 RMK AO2 SLP195 T01220089

TAF KGON
Valid from the 19 at 12:00 until the 20 at 12:00 UTC


191135Z 1912/2012 15006KT P6SM SCT080 BKN100
FM191300 17010KT P6SM SCT035 BKN050
FM191600 18011KT P6SM SCT040 BKN120
FM192000 18012KT P6SM SCT035 BKN100
FM200200 20008KT P6SM BKN035 WS020/22040KT
FM200600 18005KT 5SM -SHRA BR SCT008 BKN015 OVC040 WS020/23040KT
KZBW FIR / North America



MET'MAP, your aeronautical weather chart ! - Copyright ORBIFLY December 2007 - Disclaimer

ORBIFLY MET'MAP TEAM :

Programming & Development : Alexandra Zaïnal
Concept & Development : Baudouin d'Aumeries
Co-Development & Prog : Marc-Olivier Méhu
Technical & hardware support : Manuel Goepfert

Contact : metmap@orbifly.com




SOURCES & CREDITS :

   NOAA       Earth
Advisory